메인 페이지
METAR-TAF:

METAR-TAF

공항 :

폴로콰네, 남아프리카공화국

위도: 23-50-43S, 경도: 29-27-31E, 고도: 1242m

현재 날씨관측

예보는 33분 전, 04:00시(UTC)에 발표되었습니다.
1kt
온도 4°C
습도 52%
기압 1024 hPa
시정 10km 이상
1500m 미만 상공 구름 및 적란운 없음

METAR: FAPP 250400Z 18001KT CAVOK 04/M05 Q1024 NOSIG

시각: 06:33 (04:33 UTC)

예보

예보는 1 시간 33분 전, 03:00시(UTC)에 발표되었습니다.
예보 대상 시간: 25일 04시부터 25일 15시까지 (UTC)
여러 방향의 바람 3kt
시정 10km 이상
1500m 미만 상공 구름 및 적란운 없음
확률 40% :
일시적
25일 04시부터 25일 06시까지 (UTC)
시정: 5000m
고도 700ft 상공 구름 많음
박무
25일 0800시부터 (UTC)
북북동10kt
시정 10km 이상
1500m 미만 상공 구름 및 적란운 없음
전환 중
25일 11시부터 25일 13시까지 (UTC)
북서10kt

TAF: FAPP 250300Z 2504/2515 VRB03KT CAVOK TX24/2512Z TN04/2505Z PROB40 TEMPO 2504/2506 5000 BR BKN007 FM250800 03010KT CAVOK BECMG 2511/2513 32010KT

4,000개 이상의 공항 관측 자료 및 예보 (METAR 및 TAF 보고).

지도상에서 검색 가능한 기상관측소가 노란 점과 빨간 점으로 표시되어 있습니다.

기상관측소 명을 보려면 표시 위로 마우스를 이동하세요.

날씨 관측과 예보를 보려면 클릭하세요.

지도 변경 : 확대하려면 엑스 표시가 있는 녹색 버튼, 축소하려면 빼기 표시가 있는 녹색 버튼, 다음 페이지의 지도를 보려면 녹색 화살표를 클릭하세요.


METAR-TAF: